sensor_id;sensor_type;location;lat;lon;timestamp;temperature;humidity
26655;DHT22;14278;50.784;4.630;2023-07-16T00:02:16;19.30;99.90
26655;DHT22;14278;50.784;4.630;2023-07-16T00:04:43;19.20;99.90
26655;DHT22;14278;50.784;4.630;2023-07-16T00:07:09;19.10;99.90
26655;DHT22;14278;50.784;4.630;2023-07-16T00:09:36;19.00;99.90
26655;DHT22;14278;50.784;4.630;2023-07-16T00:12:02;19.20;99.90
26655;DHT22;14278;50.784;4.630;2023-07-16T00:14:27;19.20;99.90
26655;DHT22;14278;50.784;4.630;2023-07-16T00:16:54;19.20;99.90
26655;DHT22;14278;50.784;4.630;2023-07-16T00:19:20;19.30;99.90
26655;DHT22;14278;50.784;4.630;2023-07-16T00:21:45;19.20;99.90
26655;DHT22;14278;50.784;4.630;2023-07-16T00:24:11;19.20;99.90
26655;DHT22;14278;50.784;4.630;2023-07-16T00:26:37;19.20;99.90
26655;DHT22;14278;50.784;4.630;2023-07-16T00:29:03;19.20;99.90
26655;DHT22;14278;50.784;4.630;2023-07-16T00:31:29;19.10;99.90
26655;DHT22;14278;50.784;4.630;2023-07-16T00:33:54;18.90;99.90
26655;DHT22;14278;50.784;4.630;2023-07-16T00:36:20;18.90;99.90
26655;DHT22;14278;50.784;4.630;2023-07-16T00:38:46;18.80;99.90
26655;DHT22;14278;50.784;4.630;2023-07-16T00:41:13;18.80;99.90
26655;DHT22;14278;50.784;4.630;2023-07-16T00:43:40;18.70;99.90
26655;DHT22;14278;50.784;4.630;2023-07-16T00:46:06;18.70;99.90
26655;DHT22;14278;50.784;4.630;2023-07-16T00:48:32;18.60;99.90
26655;DHT22;14278;50.784;4.630;2023-07-16T00:51:00;18.50;99.90
26655;DHT22;14278;50.784;4.630;2023-07-16T00:53:27;18.60;99.90
26655;DHT22;14278;50.784;4.630;2023-07-16T00:55:53;18.60;99.90
26655;DHT22;14278;50.784;4.630;2023-07-16T00:58:19;18.40;99.90
26655;DHT22;14278;50.784;4.630;2023-07-16T01:00:44;18.30;99.90
26655;DHT22;14278;50.784;4.630;2023-07-16T01:03:13;18.30;99.90
26655;DHT22;14278;50.784;4.630;2023-07-16T01:06:01;18.20;99.90
26655;DHT22;14278;50.784;4.630;2023-07-16T01:09:02;18.40;99.90
26655;DHT22;14278;50.784;4.630;2023-07-16T01:11:29;18.20;99.90
26655;DHT22;14278;50.784;4.630;2023-07-16T01:13:56;18.00;99.90
26655;DHT22;14278;50.784;4.630;2023-07-16T01:16:24;18.00;99.90
26655;DHT22;14278;50.784;4.630;2023-07-16T01:18:51;17.90;99.90
26655;DHT22;14278;50.784;4.630;2023-07-16T01:21:23;17.80;99.90
26655;DHT22;14278;50.784;4.630;2023-07-16T01:31:55;17.90;99.90
26655;DHT22;14278;50.784;4.630;2023-07-16T01:34:24;17.90;99.90
26655;DHT22;14278;50.784;4.630;2023-07-16T01:36:52;17.80;99.90
26655;DHT22;14278;50.784;4.630;2023-07-16T01:39:18;17.90;99.90
26655;DHT22;14278;50.784;4.630;2023-07-16T01:41:45;17.80;99.90
26655;DHT22;14278;50.784;4.630;2023-07-16T01:44:11;17.70;99.90
26655;DHT22;14278;50.784;4.630;2023-07-16T01:46:37;17.80;99.90
26655;DHT22;14278;50.784;4.630;2023-07-16T01:49:03;17.70;99.90
26655;DHT22;14278;50.784;4.630;2023-07-16T01:51:29;17.60;99.90
26655;DHT22;14278;50.784;4.630;2023-07-16T01:53:55;17.50;99.90
26655;DHT22;14278;50.784;4.630;2023-07-16T01:56:21;17.60;99.90
26655;DHT22;14278;50.784;4.630;2023-07-16T01:58:47;17.70;99.90
26655;DHT22;14278;50.784;4.630;2023-07-16T02:01:13;17.60;99.90
26655;DHT22;14278;50.784;4.630;2023-07-16T02:03:39;17.40;99.90
26655;DHT22;14278;50.784;4.630;2023-07-16T02:06:05;17.50;99.90
26655;DHT22;14278;50.784;4.630;2023-07-16T02:08:30;17.40;99.90
26655;DHT22;14278;50.784;4.630;2023-07-16T02:10:57;17.40;99.90
26655;DHT22;14278;50.784;4.630;2023-07-16T02:13:22;17.50;99.90
26655;DHT22;14278;50.784;4.630;2023-07-16T02:15:48;17.40;99.90
26655;DHT22;14278;50.784;4.630;2023-07-16T02:18:15;17.30;99.90
26655;DHT22;14278;50.784;4.630;2023-07-16T02:20:40;17.30;99.90
26655;DHT22;14278;50.784;4.630;2023-07-16T02:23:07;17.30;99.90
26655;DHT22;14278;50.784;4.630;2023-07-16T02:25:33;17.10;99.90
26655;DHT22;14278;50.784;4.630;2023-07-16T02:27:58;16.90;99.90
26655;DHT22;14278;50.784;4.630;2023-07-16T02:30:25;17.00;99.90
26655;DHT22;14278;50.784;4.630;2023-07-16T02:32:50;17.10;99.90
26655;DHT22;14278;50.784;4.630;2023-07-16T02:35:17;17.30;99.90
26655;DHT22;14278;50.784;4.630;2023-07-16T02:37:43;17.20;99.90
26655;DHT22;14278;50.784;4.630;2023-07-16T02:40:09;17.20;99.90
26655;DHT22;14278;50.784;4.630;2023-07-16T02:42:35;17.10;99.90
26655;DHT22;14278;50.784;4.630;2023-07-16T02:45:01;17.00;99.90
26655;DHT22;14278;50.784;4.630;2023-07-16T02:47:27;17.00;99.90
26655;DHT22;14278;50.784;4.630;2023-07-16T02:49:53;17.10;99.90
26655;DHT22;14278;50.784;4.630;2023-07-16T02:52:19;17.00;99.90
26655;DHT22;14278;50.784;4.630;2023-07-16T02:54:45;17.00;99.90
26655;DHT22;14278;50.784;4.630;2023-07-16T02:57:11;17.00;99.90
26655;DHT22;14278;50.784;4.630;2023-07-16T02:59:37;16.90;99.90
26655;DHT22;14278;50.784;4.630;2023-07-16T03:02:03;16.70;99.90
26655;DHT22;14278;50.784;4.630;2023-07-16T03:04:28;16.80;99.90
26655;DHT22;14278;50.784;4.630;2023-07-16T03:06:55;16.80;99.90
26655;DHT22;14278;50.784;4.630;2023-07-16T03:09:20;16.90;99.90
26655;DHT22;14278;50.784;4.630;2023-07-16T03:11:46;16.90;99.90
26655;DHT22;14278;50.784;4.630;2023-07-16T03:14:12;16.70;99.90
26655;DHT22;14278;50.784;4.630;2023-07-16T03:16:38;16.70;99.90
26655;DHT22;14278;50.784;4.630;2023-07-16T03:19:04;16.70;99.90
26655;DHT22;14278;50.784;4.630;2023-07-16T03:21:31;16.70;99.90
26655;DHT22;14278;50.784;4.630;2023-07-16T03:23:57;16.80;99.90
26655;DHT22;14278;50.784;4.630;2023-07-16T03:26:23;16.60;99.90
26655;DHT22;14278;50.784;4.630;2023-07-16T03:28:49;16.70;99.90
26655;DHT22;14278;50.784;4.630;2023-07-16T03:31:15;16.70;99.90
26655;DHT22;14278;50.784;4.630;2023-07-16T03:33:41;16.70;99.90
26655;DHT22;14278;50.784;4.630;2023-07-16T03:36:07;16.70;99.90
26655;DHT22;14278;50.784;4.630;2023-07-16T03:38:33;16.70;99.90
26655;DHT22;14278;50.784;4.630;2023-07-16T03:40:59;16.50;99.90
26655;DHT22;14278;50.784;4.630;2023-07-16T03:43:26;16.70;99.90
26655;DHT22;14278;50.784;4.630;2023-07-16T03:45:51;16.70;99.90
26655;DHT22;14278;50.784;4.630;2023-07-16T03:48:18;16.60;99.90
26655;DHT22;14278;50.784;4.630;2023-07-16T03:50:44;16.50;99.90
26655;DHT22;14278;50.784;4.630;2023-07-16T03:53:12;16.70;99.90
26655;DHT22;14278;50.784;4.630;2023-07-16T03:55:38;16.60;99.90
26655;DHT22;14278;50.784;4.630;2023-07-16T03:58:04;16.50;99.90
26655;DHT22;14278;50.784;4.630;2023-07-16T04:00:30;16.40;99.90
26655;DHT22;14278;50.784;4.630;2023-07-16T04:02:56;16.50;99.90
26655;DHT22;14278;50.784;4.630;2023-07-16T04:05:22;16.60;99.90
26655;DHT22;14278;50.784;4.630;2023-07-16T04:07:48;16.50;99.90
26655;DHT22;14278;50.784;4.630;2023-07-16T04:10:14;16.60;99.90
26655;DHT22;14278;50.784;4.630;2023-07-16T04:12:40;16.60;99.90
26655;DHT22;14278;50.784;4.630;2023-07-16T04:15:08;16.60;99.90
26655;DHT22;14278;50.784;4.630;2023-07-16T04:17:35;16.60;99.90
26655;DHT22;14278;50.784;4.630;2023-07-16T04:20:01;16.80;99.90
26655;DHT22;14278;50.784;4.630;2023-07-16T04:22:28;16.80;99.90
26655;DHT22;14278;50.784;4.630;2023-07-16T04:24:54;16.90;99.90
26655;DHT22;14278;50.784;4.630;2023-07-16T04:27:20;16.90;99.90
26655;DHT22;14278;50.784;4.630;2023-07-16T04:29:45;16.90;99.90
26655;DHT22;14278;50.784;4.630;2023-07-16T04:32:12;17.00;99.90
26655;DHT22;14278;50.784;4.630;2023-07-16T04:34:37;16.90;99.90
26655;DHT22;14278;50.784;4.630;2023-07-16T04:37:04;16.90;99.90
26655;DHT22;14278;50.784;4.630;2023-07-16T04:39:30;17.20;99.90
26655;DHT22;14278;50.784;4.630;2023-07-16T04:41:55;17.20;99.90
26655;DHT22;14278;50.784;4.630;2023-07-16T04:44:22;17.40;99.90
26655;DHT22;14278;50.784;4.630;2023-07-16T04:46:47;17.50;99.90
26655;DHT22;14278;50.784;4.630;2023-07-16T04:49:13;18.20;99.90
26655;DHT22;14278;50.784;4.630;2023-07-16T04:51:39;18.60;99.90
26655;DHT22;14278;50.784;4.630;2023-07-16T04:54:05;18.40;99.90
26655;DHT22;14278;50.784;4.630;2023-07-16T04:56:31;18.80;99.90
26655;DHT22;14278;50.784;4.630;2023-07-16T04:58:57;19.10;99.90
26655;DHT22;14278;50.784;4.630;2023-07-16T05:01:23;19.00;99.90
26655;DHT22;14278;50.784;4.630;2023-07-16T05:03:49;18.80;99.90
26655;DHT22;14278;50.784;4.630;2023-07-16T05:06:15;18.80;99.90
26655;DHT22;14278;50.784;4.630;2023-07-16T05:08:41;18.90;99.90
26655;DHT22;14278;50.784;4.630;2023-07-16T05:11:07;19.10;99.90
26655;DHT22;14278;50.784;4.630;2023-07-16T05:13:33;19.00;99.90
26655;DHT22;14278;50.784;4.630;2023-07-16T05:15:59;18.40;99.90
26655;DHT22;14278;50.784;4.630;2023-07-16T05:18:25;18.50;99.90
26655;DHT22;14278;50.784;4.630;2023-07-16T05:20:51;18.50;99.90
26655;DHT22;14278;50.784;4.630;2023-07-16T05:23:17;18.30;99.90
26655;DHT22;14278;50.784;4.630;2023-07-16T05:25:47;18.20;99.90
26655;DHT22;14278;50.784;4.630;2023-07-16T05:28:16;17.90;99.90
26655;DHT22;14278;50.784;4.630;2023-07-16T05:30:42;18.00;99.90
26655;DHT22;14278;50.784;4.630;2023-07-16T05:33:09;18.30;99.90
26655;DHT22;14278;50.784;4.630;2023-07-16T05:35:35;18.10;99.90
26655;DHT22;14278;50.784;4.630;2023-07-16T05:38:01;18.30;99.90
26655;DHT22;14278;50.784;4.630;2023-07-16T05:40:27;18.50;99.90
26655;DHT22;14278;50.784;4.630;2023-07-16T05:42:54;18.70;99.90
26655;DHT22;14278;50.784;4.630;2023-07-16T05:45:20;18.80;99.90
26655;DHT22;14278;50.784;4.630;2023-07-16T05:47:46;18.70;99.90
26655;DHT22;14278;50.784;4.630;2023-07-16T05:50:13;18.70;99.90
26655;DHT22;14278;50.784;4.630;2023-07-16T05:52:38;18.60;99.90
26655;DHT22;14278;50.784;4.630;2023-07-16T05:55:04;18.80;99.90
26655;DHT22;14278;50.784;4.630;2023-07-16T05:57:31;18.60;99.90
26655;DHT22;14278;50.784;4.630;2023-07-16T05:59:56;18.60;99.90
26655;DHT22;14278;50.784;4.630;2023-07-16T06:02:23;18.60;99.90
26655;DHT22;14278;50.784;4.630;2023-07-16T06:04:48;18.60;99.90
26655;DHT22;14278;50.784;4.630;2023-07-16T06:07:14;18.30;99.90
26655;DHT22;14278;50.784;4.630;2023-07-16T06:09:40;18.10;99.90
26655;DHT22;14278;50.784;4.630;2023-07-16T06:12:06;18.10;99.90
26655;DHT22;14278;50.784;4.630;2023-07-16T06:14:32;18.20;99.90
26655;DHT22;14278;50.784;4.630;2023-07-16T06:16:58;18.40;99.90
26655;DHT22;14278;50.784;4.630;2023-07-16T06:19:24;18.60;99.90
26655;DHT22;14278;50.784;4.630;2023-07-16T06:21:50;18.50;99.90
26655;DHT22;14278;50.784;4.630;2023-07-16T06:24:16;18.50;99.90
26655;DHT22;14278;50.784;4.630;2023-07-16T06:26:42;18.50;99.90
26655;DHT22;14278;50.784;4.630;2023-07-16T06:29:08;18.70;99.90
26655;DHT22;14278;50.784;4.630;2023-07-16T06:31:34;18.70;99.90
26655;DHT22;14278;50.784;4.630;2023-07-16T06:34:00;18.80;99.90
26655;DHT22;14278;50.784;4.630;2023-07-16T06:36:26;19.00;99.90
26655;DHT22;14278;50.784;4.630;2023-07-16T06:38:52;19.10;99.90
26655;DHT22;14278;50.784;4.630;2023-07-16T06:41:18;18.90;99.90
26655;DHT22;14278;50.784;4.630;2023-07-16T06:43:44;19.30;99.90
26655;DHT22;14278;50.784;4.630;2023-07-16T06:46:10;19.30;99.90
26655;DHT22;14278;50.784;4.630;2023-07-16T06:48:36;19.60;99.90
26655;DHT22;14278;50.784;4.630;2023-07-16T06:51:02;19.70;99.90
26655;DHT22;14278;50.784;4.630;2023-07-16T06:53:28;20.40;99.90
26655;DHT22;14278;50.784;4.630;2023-07-16T06:55:54;21.20;99.90
26655;DHT22;14278;50.784;4.630;2023-07-16T06:58:20;22.60;99.90
26655;DHT22;14278;50.784;4.630;2023-07-16T07:00:56;23.60;99.90
26655;DHT22;14278;50.784;4.630;2023-07-16T07:03:22;24.90;99.90
26655;DHT22;14278;50.784;4.630;2023-07-16T07:05:48;25.80;99.90
26655;DHT22;14278;50.784;4.630;2023-07-16T07:08:14;25.40;99.90
26655;DHT22;14278;50.784;4.630;2023-07-16T07:10:40;26.20;99.90
26655;DHT22;14278;50.784;4.630;2023-07-16T07:13:06;27.60;99.90
26655;DHT22;14278;50.784;4.630;2023-07-16T07:15:32;27.50;99.90
26655;DHT22;14278;50.784;4.630;2023-07-16T07:17:58;27.80;99.90
26655;DHT22;14278;50.784;4.630;2023-07-16T07:20:24;27.20;99.90
26655;DHT22;14278;50.784;4.630;2023-07-16T07:22:50;27.00;99.90
26655;DHT22;14278;50.784;4.630;2023-07-16T07:25:16;26.90;99.90
26655;DHT22;14278;50.784;4.630;2023-07-16T07:27:42;28.10;99.90
26655;DHT22;14278;50.784;4.630;2023-07-16T07:30:08;28.40;99.90
26655;DHT22;14278;50.784;4.630;2023-07-16T07:32:37;28.70;99.90
26655;DHT22;14278;50.784;4.630;2023-07-16T07:35:03;29.60;99.90
26655;DHT22;14278;50.784;4.630;2023-07-16T07:37:29;28.60;99.90
26655;DHT22;14278;50.784;4.630;2023-07-16T07:39:56;28.10;99.90
26655;DHT22;14278;50.784;4.630;2023-07-16T07:42:24;27.90;99.90
26655;DHT22;14278;50.784;4.630;2023-07-16T07:44:50;28.20;99.90
26655;DHT22;14278;50.784;4.630;2023-07-16T07:47:16;28.60;99.90
26655;DHT22;14278;50.784;4.630;2023-07-16T07:49:42;28.90;99.90
26655;DHT22;14278;50.784;4.630;2023-07-16T07:52:08;27.80;99.90
26655;DHT22;14278;50.784;4.630;2023-07-16T07:54:34;28.10;99.90
26655;DHT22;14278;50.784;4.630;2023-07-16T07:57:04;27.90;99.90
26655;DHT22;14278;50.784;4.630;2023-07-16T07:59:30;28.20;99.90
26655;DHT22;14278;50.784;4.630;2023-07-16T08:01:59;28.40;99.90
26655;DHT22;14278;50.784;4.630;2023-07-16T08:04:27;28.70;99.90
26655;DHT22;14278;50.784;4.630;2023-07-16T08:06:54;29.10;99.90
26655;DHT22;14278;50.784;4.630;2023-07-16T08:09:20;29.70;99.90
26655;DHT22;14278;50.784;4.630;2023-07-16T08:11:46;29.60;99.90
26655;DHT22;14278;50.784;4.630;2023-07-16T08:14:12;30.30;99.90
26655;DHT22;14278;50.784;4.630;2023-07-16T08:16:38;29.20;99.90
26655;DHT22;14278;50.784;4.630;2023-07-16T08:19:04;29.70;99.90
26655;DHT22;14278;50.784;4.630;2023-07-16T08:21:30;30.20;99.90
26655;DHT22;14278;50.784;4.630;2023-07-16T08:23:56;30.00;99.90
26655;DHT22;14278;50.784;4.630;2023-07-16T08:26:22;29.70;99.90
26655;DHT22;14278;50.784;4.630;2023-07-16T08:28:48;29.80;99.90
26655;DHT22;14278;50.784;4.630;2023-07-16T08:31:14;30.00;99.90
26655;DHT22;14278;50.784;4.630;2023-07-16T08:33:40;28.30;99.90
26655;DHT22;14278;50.784;4.630;2023-07-16T08:36:07;26.90;99.90
26655;DHT22;14278;50.784;4.630;2023-07-16T08:38:33;25.90;99.90
26655;DHT22;14278;50.784;4.630;2023-07-16T08:41:02;25.90;99.90
26655;DHT22;14278;50.784;4.630;2023-07-16T08:43:33;26.90;99.90
26655;DHT22;14278;50.784;4.630;2023-07-16T08:45:59;27.30;99.90
26655;DHT22;14278;50.784;4.630;2023-07-16T08:48:28;29.00;99.90
26655;DHT22;14278;50.784;4.630;2023-07-16T08:50:55;29.50;99.90
26655;DHT22;14278;50.784;4.630;2023-07-16T08:53:22;29.10;99.90
26655;DHT22;14278;50.784;4.630;2023-07-16T08:55:47;28.70;99.90
26655;DHT22;14278;50.784;4.630;2023-07-16T08:58:14;29.20;99.90
26655;DHT22;14278;50.784;4.630;2023-07-16T09:00:42;27.70;99.90
26655;DHT22;14278;50.784;4.630;2023-07-16T09:03:13;26.90;99.90
26655;DHT22;14278;50.784;4.630;2023-07-16T09:05:43;26.30;99.90
26655;DHT22;14278;50.784;4.630;2023-07-16T09:08:09;25.70;99.90
26655;DHT22;14278;50.784;4.630;2023-07-16T09:10:35;25.30;99.90
26655;DHT22;14278;50.784;4.630;2023-07-16T09:13:02;24.60;99.90
26655;DHT22;14278;50.784;4.630;2023-07-16T09:15:29;24.30;99.90
26655;DHT22;14278;50.784;4.630;2023-07-16T09:17:56;23.90;99.90
26655;DHT22;14278;50.784;4.630;2023-07-16T09:20:22;23.50;99.90
26655;DHT22;14278;50.784;4.630;2023-07-16T09:22:54;23.50;99.90
26655;DHT22;14278;50.784;4.630;2023-07-16T09:25:27;23.00;99.90
26655;DHT22;14278;50.784;4.630;2023-07-16T09:27:53;23.30;99.90
26655;DHT22;14278;50.784;4.630;2023-07-16T09:30:20;24.20;99.90
26655;DHT22;14278;50.784;4.630;2023-07-16T09:32:46;25.00;99.90
26655;DHT22;14278;50.784;4.630;2023-07-16T09:35:14;25.60;99.90
26655;DHT22;14278;50.784;4.630;2023-07-16T09:37:44;25.70;99.90
26655;DHT22;14278;50.784;4.630;2023-07-16T09:40:11;25.20;99.90
26655;DHT22;14278;50.784;4.630;2023-07-16T09:42:42;24.70;99.90
26655;DHT22;14278;50.784;4.630;2023-07-16T09:45:17;24.80;99.90
26655;DHT22;14278;50.784;4.630;2023-07-16T09:47:43;24.70;99.90
26655;DHT22;14278;50.784;4.630;2023-07-16T09:50:10;24.10;99.90
26655;DHT22;14278;50.784;4.630;2023-07-16T09:52:37;24.30;99.90
26655;DHT22;14278;50.784;4.630;2023-07-16T09:55:05;24.50;99.90
26655;DHT22;14278;50.784;4.630;2023-07-16T09:57:39;24.70;99.90
26655;DHT22;14278;50.784;4.630;2023-07-16T10:00:09;24.60;99.90
26655;DHT22;14278;50.784;4.630;2023-07-16T10:02:40;24.70;99.90
26655;DHT22;14278;50.784;4.630;2023-07-16T10:05:18;24.70;99.90
26655;DHT22;14278;50.784;4.630;2023-07-16T10:07:57;25.00;99.90
26655;DHT22;14278;50.784;4.630;2023-07-16T10:13:14;24.20;99.90
26655;DHT22;14278;50.784;4.630;2023-07-16T10:15:54;23.60;99.90
26655;DHT22;14278;50.784;4.630;2023-07-16T10:18:30;23.60;99.90
26655;DHT22;14278;50.784;4.630;2023-07-16T10:21:03;23.60;99.90
26655;DHT22;14278;50.784;4.630;2023-07-16T10:23:43;23.90;99.90
26655;DHT22;14278;50.784;4.630;2023-07-16T10:26:12;24.80;99.90
26655;DHT22;14278;50.784;4.630;2023-07-16T10:28:38;25.60;99.90
26655;DHT22;14278;50.784;4.630;2023-07-16T10:31:04;25.70;99.90
26655;DHT22;14278;50.784;4.630;2023-07-16T10:33:33;25.70;99.90
26655;DHT22;14278;50.784;4.630;2023-07-16T10:35:59;25.50;99.90
26655;DHT22;14278;50.784;4.630;2023-07-16T10:38:26;25.50;99.90
26655;DHT22;14278;50.784;4.630;2023-07-16T10:40:52;25.60;99.90
26655;DHT22;14278;50.784;4.630;2023-07-16T10:43:18;25.60;99.90
26655;DHT22;14278;50.784;4.630;2023-07-16T10:45:44;25.40;99.90
26655;DHT22;14278;50.784;4.630;2023-07-16T10:48:12;25.10;99.90
26655;DHT22;14278;50.784;4.630;2023-07-16T10:50:38;24.90;99.90
26655;DHT22;14278;50.784;4.630;2023-07-16T10:53:04;24.70;99.90
26655;DHT22;14278;50.784;4.630;2023-07-16T10:55:30;24.10;99.90
26655;DHT22;14278;50.784;4.630;2023-07-16T10:58:04;23.70;99.90
26655;DHT22;14278;50.784;4.630;2023-07-16T11:00:31;23.60;99.90
26655;DHT22;14278;50.784;4.630;2023-07-16T11:02:57;23.70;99.90
26655;DHT22;14278;50.784;4.630;2023-07-16T11:05:23;23.90;99.90
26655;DHT22;14278;50.784;4.630;2023-07-16T11:07:49;24.10;99.90
26655;DHT22;14278;50.784;4.630;2023-07-16T11:10:16;23.80;99.90
26655;DHT22;14278;50.784;4.630;2023-07-16T11:12:43;24.00;99.90
26655;DHT22;14278;50.784;4.630;2023-07-16T11:15:10;24.00;99.90
26655;DHT22;14278;50.784;4.630;2023-07-16T11:17:39;23.90;99.90
26655;DHT22;14278;50.784;4.630;2023-07-16T11:20:07;24.00;99.90
26655;DHT22;14278;50.784;4.630;2023-07-16T11:22:37;24.00;99.90
26655;DHT22;14278;50.784;4.630;2023-07-16T11:25:10;24.10;99.90
26655;DHT22;14278;50.784;4.630;2023-07-16T11:27:36;24.80;99.90
26655;DHT22;14278;50.784;4.630;2023-07-16T11:30:06;24.90;99.90
26655;DHT22;14278;50.784;4.630;2023-07-16T11:32:42;25.20;99.90
26655;DHT22;14278;50.784;4.630;2023-07-16T11:35:15;24.80;99.90
26655;DHT22;14278;50.784;4.630;2023-07-16T11:37:41;24.50;99.90
26655;DHT22;14278;50.784;4.630;2023-07-16T11:40:09;24.40;99.90
26655;DHT22;14278;50.784;4.630;2023-07-16T11:42:39;24.30;99.90
26655;DHT22;14278;50.784;4.630;2023-07-16T11:45:21;24.30;99.90
26655;DHT22;14278;50.784;4.630;2023-07-16T11:47:48;25.10;99.90
26655;DHT22;14278;50.784;4.630;2023-07-16T11:50:15;25.60;99.90
26655;DHT22;14278;50.784;4.630;2023-07-16T11:52:41;25.30;99.90
26655;DHT22;14278;50.784;4.630;2023-07-16T11:55:07;24.90;99.90
26655;DHT22;14278;50.784;4.630;2023-07-16T11:57:34;24.60;99.90
26655;DHT22;14278;50.784;4.630;2023-07-16T12:00:02;24.50;99.90
26655;DHT22;14278;50.784;4.630;2023-07-16T12:02:28;24.50;99.90
26655;DHT22;14278;50.784;4.630;2023-07-16T12:04:55;24.60;99.90
26655;DHT22;14278;50.784;4.630;2023-07-16T12:07:36;24.80;99.90
26655;DHT22;14278;50.784;4.630;2023-07-16T12:10:03;25.30;99.90
26655;DHT22;14278;50.784;4.630;2023-07-16T12:12:30;25.60;99.90
26655;DHT22;14278;50.784;4.630;2023-07-16T12:14:56;26.40;99.90
26655;DHT22;14278;50.784;4.630;2023-07-16T12:17:22;26.00;99.90
26655;DHT22;14278;50.784;4.630;2023-07-16T12:19:48;25.90;99.90
26655;DHT22;14278;50.784;4.630;2023-07-16T12:22:16;25.60;99.90
26655;DHT22;14278;50.784;4.630;2023-07-16T12:24:43;25.70;99.90
26655;DHT22;14278;50.784;4.630;2023-07-16T12:27:09;26.00;99.90
26655;DHT22;14278;50.784;4.630;2023-07-16T12:29:35;25.90;99.90
26655;DHT22;14278;50.784;4.630;2023-07-16T12:32:01;25.80;99.90
26655;DHT22;14278;50.784;4.630;2023-07-16T12:34:26;25.40;99.90
26655;DHT22;14278;50.784;4.630;2023-07-16T12:36:53;24.90;99.90
26655;DHT22;14278;50.784;4.630;2023-07-16T12:39:20;25.20;99.90
26655;DHT22;14278;50.784;4.630;2023-07-16T12:41:46;25.60;99.90
26655;DHT22;14278;50.784;4.630;2023-07-16T12:44:12;25.70;99.90
26655;DHT22;14278;50.784;4.630;2023-07-16T12:46:38;25.80;99.90
26655;DHT22;14278;50.784;4.630;2023-07-16T12:49:04;25.70;99.90
26655;DHT22;14278;50.784;4.630;2023-07-16T12:51:30;26.10;99.90
26655;DHT22;14278;50.784;4.630;2023-07-16T12:53:56;26.90;99.90
26655;DHT22;14278;50.784;4.630;2023-07-16T12:56:22;26.80;99.90
26655;DHT22;14278;50.784;4.630;2023-07-16T12:58:48;27.30;99.90
26655;DHT22;14278;50.784;4.630;2023-07-16T13:01:15;27.20;99.90
26655;DHT22;14278;50.784;4.630;2023-07-16T13:03:40;26.80;99.90
26655;DHT22;14278;50.784;4.630;2023-07-16T13:06:06;26.60;99.90
26655;DHT22;14278;50.784;4.630;2023-07-16T13:08:32;26.10;99.90
26655;DHT22;14278;50.784;4.630;2023-07-16T13:10:58;26.50;99.90
26655;DHT22;14278;50.784;4.630;2023-07-16T13:13:25;26.00;99.90
26655;DHT22;14278;50.784;4.630;2023-07-16T13:15:51;25.70;99.90
26655;DHT22;14278;50.784;4.630;2023-07-16T13:18:17;25.60;99.90
26655;DHT22;14278;50.784;4.630;2023-07-16T13:20:44;25.50;99.90
26655;DHT22;14278;50.784;4.630;2023-07-16T13:23:09;25.70;99.90
26655;DHT22;14278;50.784;4.630;2023-07-16T13:25:36;25.80;99.90
26655;DHT22;14278;50.784;4.630;2023-07-16T13:28:07;25.70;99.90
26655;DHT22;14278;50.784;4.630;2023-07-16T13:30:33;25.90;99.90
26655;DHT22;14278;50.784;4.630;2023-07-16T13:32:59;26.40;99.90
26655;DHT22;14278;50.784;4.630;2023-07-16T13:35:26;26.30;99.90
26655;DHT22;14278;50.784;4.630;2023-07-16T13:37:53;26.30;99.90
26655;DHT22;14278;50.784;4.630;2023-07-16T13:40:19;26.10;99.90
26655;DHT22;14278;50.784;4.630;2023-07-16T13:42:47;25.90;99.90
26655;DHT22;14278;50.784;4.630;2023-07-16T13:45:14;26.10;99.90
26655;DHT22;14278;50.784;4.630;2023-07-16T13:47:39;25.90;99.90
26655;DHT22;14278;50.784;4.630;2023-07-16T13:50:06;25.80;99.90
26655;DHT22;14278;50.784;4.630;2023-07-16T13:52:32;25.60;99.90
26655;DHT22;14278;50.784;4.630;2023-07-16T13:54:58;25.60;99.90
26655;DHT22;14278;50.784;4.630;2023-07-16T13:57:24;25.40;99.90
26655;DHT22;14278;50.784;4.630;2023-07-16T13:59:50;25.60;99.90
26655;DHT22;14278;50.784;4.630;2023-07-16T14:02:16;25.60;99.90
26655;DHT22;14278;50.784;4.630;2023-07-16T14:04:41;25.80;99.90
26655;DHT22;14278;50.784;4.630;2023-07-16T14:07:08;25.60;99.90
26655;DHT22;14278;50.784;4.630;2023-07-16T14:09:33;25.40;99.90
26655;DHT22;14278;50.784;4.630;2023-07-16T14:11:59;25.60;99.90
26655;DHT22;14278;50.784;4.630;2023-07-16T14:14:26;26.00;99.90
26655;DHT22;14278;50.784;4.630;2023-07-16T14:16:53;25.90;99.90
26655;DHT22;14278;50.784;4.630;2023-07-16T14:19:21;25.50;99.90
26655;DHT22;14278;50.784;4.630;2023-07-16T14:21:47;25.60;99.90
26655;DHT22;14278;50.784;4.630;2023-07-16T14:24:13;25.60;99.90
26655;DHT22;14278;50.784;4.630;2023-07-16T14:26:39;25.60;99.90
26655;DHT22;14278;50.784;4.630;2023-07-16T14:29:05;25.10;99.90
26655;DHT22;14278;50.784;4.630;2023-07-16T14:31:31;25.40;99.90
26655;DHT22;14278;50.784;4.630;2023-07-16T14:33:57;26.00;99.90
26655;DHT22;14278;50.784;4.630;2023-07-16T14:36:23;26.30;99.90
26655;DHT22;14278;50.784;4.630;2023-07-16T14:38:49;26.50;99.90
26655;DHT22;14278;50.784;4.630;2023-07-16T14:41:15;26.30;99.90
26655;DHT22;14278;50.784;4.630;2023-07-16T14:43:41;26.30;99.90
26655;DHT22;14278;50.784;4.630;2023-07-16T14:46:07;26.40;99.90
26655;DHT22;14278;50.784;4.630;2023-07-16T14:48:33;26.40;99.90
26655;DHT22;14278;50.784;4.630;2023-07-16T14:51:00;26.50;99.90
26655;DHT22;14278;50.784;4.630;2023-07-16T14:53:26;25.90;99.90
26655;DHT22;14278;50.784;4.630;2023-07-16T14:55:52;26.40;99.90
26655;DHT22;14278;50.784;4.630;2023-07-16T14:58:19;26.80;99.90
26655;DHT22;14278;50.784;4.630;2023-07-16T15:00:46;26.70;99.90
26655;DHT22;14278;50.784;4.630;2023-07-16T15:03:12;27.10;99.90
26655;DHT22;14278;50.784;4.630;2023-07-16T15:05:38;27.10;99.90
26655;DHT22;14278;50.784;4.630;2023-07-16T15:08:05;27.00;99.90
26655;DHT22;14278;50.784;4.630;2023-07-16T15:10:31;26.80;99.90
26655;DHT22;14278;50.784;4.630;2023-07-16T15:12:57;27.10;99.90
26655;DHT22;14278;50.784;4.630;2023-07-16T15:15:23;27.20;99.90
26655;DHT22;14278;50.784;4.630;2023-07-16T15:17:49;26.80;99.90
26655;DHT22;14278;50.784;4.630;2023-07-16T15:20:16;25.90;99.90
26655;DHT22;14278;50.784;4.630;2023-07-16T15:22:41;25.80;99.90
26655;DHT22;14278;50.784;4.630;2023-07-16T15:25:07;25.40;99.90
26655;DHT22;14278;50.784;4.630;2023-07-16T15:27:34;25.30;99.90
26655;DHT22;14278;50.784;4.630;2023-07-16T15:29:59;24.70;99.90
26655;DHT22;14278;50.784;4.630;2023-07-16T15:32:26;24.50;99.90
26655;DHT22;14278;50.784;4.630;2023-07-16T15:34:51;23.80;99.90
26655;DHT22;14278;50.784;4.630;2023-07-16T15:37:17;23.50;99.90
26655;DHT22;14278;50.784;4.630;2023-07-16T15:39:44;22.70;99.90